Capitol Logistics 1870

Operating for CJT



CYFB
Iqaluit Airport
Iqaluit, CA
CYOW
Ottawa Macdonald-Cartier International Airport
Ottawa, CA

Activity Log

Date Flight Route Aircraft Duration
No Flights Yet

Route Details

Aircraft Information
Group: North America Fleet
Types: B738,B752,B762,B763
Route Data
Demand: D
Distance: 1134nm
Duration: 2h 49m
Recm'd Route: 6000N/07100W YFM BEMOG LEAMY5
Origin Wx: CYFB 270600Z 14007KT 30SM SCT050 SCT200 M07/M10 A3005 RMK SC3CI1 SLP183
Dest. Wx: CYOW 270600Z 21015G22KT 15SM BKN060 BKN085 20/15 A2980 RMK SC5AC2 SLP093 DENSITY ALT 1200FT
Notes:

Financial History
Total Freight: 0lbs
Average Load: 0lbs/flt
Fuel Used: 0lbs
Avg. Fuel Used: 0lbs/flt
Fuel Expense: $0
Avg. Fuel Expense: $0
Avg. Fuel Cost: $0/lbs
Total Gross Income: $0
Pilot Pay: $0
Total Expenses: $0
Total Revenue: $0
Average Revenue: $0